Airfield :
LOGIN :

Register | Disclaimer

   EN    FR    IT 

 










Legend :    VFR   Marginal VFR   IFR   Intensive IFR   Very Intensive IFR
Visi :
Ceiling :
>= 8 km
>= 3000ft
5 to 8 km
1000 to 3000 ft
1500m to 5 km
500 to 1000 ft
800 to 1500m
200 to 500 ft
< 800m
< 200 ft
Symbols :   Thunderstorms  Fog  Heavy snow  Heavy precipitations  Wind > 20 kt
SIGMETs :     Misc.  Thunderstorms  Icing  Turbulence  Mountain Waves  Volcanic Ashes






- Airport Elevation : 177 ft
- IATA code : BRI


LIBD - Palese Macchie Bari

CURRENT METAR :
  • 232320Z AUTO 30004KT 270V330 9999 BKN014/// 17/16 Q1023

EXPIRED METARs :
  • 232250Z AUTO 29003KT 270V330 9999 BKN013/// BKN160/// 17/16 Q1023
  • 232220Z AUTO 30004KT 9999 SCT011/// BKN160/// 17/16 Q1023
  • 232150Z AUTO 28004KT 8000 FEW011/// BKN160/// 17/16 Q1023
  • 232120Z AUTO 28004KT 8000 BKN160/// 17/16 Q1023
  • 232050Z 27005KT 9999 FEW010 17/16 Q1023

TAF TAF LIBD
Valid from the 24 at 00:00 until the 25 at 00:00 UTC


232300Z 2400/2424 VRB05KT 9999 SCT030
TEMPO 2400/2406 RA
BECMG 2407/2409 05012KT
BECMG 2417/2419 VRB05KT



MET'MAP, your aeronautical weather chart ! - Copyright ORBIFLY December 2007 - Disclaimer

ORBIFLY MET'MAP TEAM :

Programming & Development : Alexandra Zaïnal
Concept & original design : Baudouin d'Aumeries
Assistance for programming : Marc-Olivier Méhu
Technical & hardware support : Manuel Goepfert

Contact : metmap@orbifly.com




SOURCES & CREDITS :

   NOAA